• Join FlightAware (Why Join?)
  • Login
  • US Flag 
03:46PM EDT


 

Airport Tracker/Info


-or-


 

Live Flight TrackerFlight Track Log ✈ VH-VJE ✈ 15-Apr-2013 ✈ YCCA / CCL - YBBN / BNE

Flight Track Log - Related Links

Times and Time Zones

All times are in EDT time to prevent confusion due to time zone crossing. See the VH-VJE flight status page for this flight to view local times or setup timezone preferences in your user account.

Time Position Orientation Groundspeed Altitude Reporting Facility
EDT Latitude Longitude Course Direction KTS MPH feet Rate Location/Type
10:09PM -26.8108 150.7209 107° East 175 201 5,900  Level Aus ATC (RADAR)
10:09PM -26.8185 150.7498 107° East 166 191 7,000 1,920 Climbing Aus ATC (RADAR)
10:10PM -26.8212 150.7673 100° East 169 194 7,700 1,200 Climbing Aus ATC (RADAR)
10:10PM -26.8271 150.7984 102° East 175 201 8,100 1,260 Climbing Aus ATC (RADAR)
10:11PM -26.8413 150.8694 103° East 205 236 9,800 1,260 Climbing Aus ATC (RADAR)
10:12PM -26.8496 150.9035 105° East 199 229 10,200 120 Climbing Aus ATC (RADAR)
10:13PM -26.8622 150.9567 105° East 211 243 10,000 -120 Descending Aus ATC (RADAR)
10:13PM -26.8738 150.9953 109° East 219 252 10,100  Climbing Aus ATC (RADAR)
10:15PM -26.8880 151.0956 99° East 234 269 10,100 -60 Level Aus ATC (RADAR)
10:15PM -26.8895 151.1210 94° East 241 277 10,000 -240 Descending Aus ATC (RADAR)
10:16PM -26.8950 151.1629 98° East 235 270 9,900 -60 Descending Aus ATC (RADAR)
10:17PM -26.9454 151.2182 136° Southeast 225 259 9,900  Level Aus ATC (RADAR)
10:17PM -26.9664 151.2516 125° Southeast 221 254 9,900 120 Level Aus ATC (RADAR)
10:18PM -26.9878 151.3057 114° Southeast 225 259 10,100  Climbing Aus ATC (RADAR)
10:19PM -27.0111 151.3658 114° Southeast 228 262 9,900 -60 Descending Aus ATC (RADAR)
10:20PM -27.0321 151.4513 105° East 223 257 10,000  Climbing Aus ATC (RADAR)
10:21PM -27.0483 151.5133 106° East 224 258 9,900  Descending Aus ATC (RADAR)
10:21PM -27.0528 151.5301 107° East 224 258 10,000 240 Climbing Aus ATC (RADAR)
10:22PM -27.0633 151.5698 107° East 225 259 10,100 -120 Climbing Aus ATC (RADAR)
10:23PM -27.0809 151.6411 105° East 240 276 9,900 -60 Descending Aus ATC (RADAR)
10:24PM -27.0941 151.6941 106° East 232 267 10,000 120 Climbing Aus ATC (RADAR)
10:25PM -27.0978 151.7551 94° East 234 269 10,100 60 Climbing Aus ATC (RADAR)
10:25PM -27.1065 151.8035 101° East 237 273 10,100  Level Aus ATC (RADAR)
10:25PM -27.1030 151.7980 101° East 230 265 10,100 -120 Level FlightAware
10:26PM -27.1190 151.8520 108° East 10,100 -120 Level FlightAware
10:26PM -27.1256 151.8789 108° East 229 264 10,000  Descending Aus ATC (RADAR)
10:27PM -27.1290 151.8910 108° East 230 265 10,100  Climbing FlightAware
10:27PM -27.1360 151.9197 108° East 231 266 10,000 -120 Descending Aus ATC (RADAR)
10:27PM -27.1460 151.9550 108° East 235 270 10,000 -120 Level FlightAware
10:28PM -27.1514 151.9784 108° East 232 267 9,900  Descending Aus ATC (RADAR)
10:28PM -27.1540 151.9880 108° East 232 267 10,000  Climbing FlightAware
10:28PM -27.1607 152.0203 108° East 235 270 9,900 60 Descending Aus ATC (RADAR)
10:29PM -27.1690 152.0480 108° East 208 239 10,100 60 Climbing FlightAware
10:29PM -27.1746 152.0797 108° East 206 237 10,000 -300 Descending Aus ATC (RADAR)
10:30PM -27.1767 152.1001 97° East 198 228 9,900  Descending Aus ATC (RADAR)
10:30PM -27.1770 152.1060 97° East 191 220 10,000 -180 Climbing FlightAware
10:30PM -27.1780 152.1366 97° East 199 229 9,800 -240 Descending Aus ATC (RADAR)
10:30PM -27.1780 152.1330 97° East 209 241 9,900 180 Climbing FlightAware
10:31PM -27.1860 152.1630 107° East 226 260 9,900 180 Level FlightAware
10:31PM -27.2065 152.2053 107° East 222 255 10,100 300 Climbing Aus ATC (RADAR)
10:31PM -27.2090 152.2060 107° East 229 264 10,100 -360 Level FlightAware
10:32PM -27.2265 152.2422 107° East 233 268 9,900  Descending Aus ATC (RADAR)
10:32PM -27.2330 152.2550 107° East 233 268 10,100  Climbing FlightAware
10:33PM -27.2532 152.2961 107° East 236 272 9,900 -180 Descending Aus ATC (RADAR)
10:33PM -27.2530 152.2980 107° East 233 268 10,000 120 Climbing FlightAware
10:33PM -27.2731 152.3402 107° East 235 270 10,000  Level Aus ATC (RADAR)
10:33PM -27.2770 152.3480 107° East 233 268 10,000 60 Level FlightAware
10:34PM -27.2970 152.3900 118° Southeast 231 266 10,100 60 Climbing FlightAware
10:35PM -27.3190 152.4370 118° Southeast 235 270 10,100 -120 Level FlightAware
10:35PM -27.3323 152.4689 118° Southeast 238 274 10,000 -300 Descending Aus ATC (RADAR)
10:36PM -27.3410 152.4870 118° Southeast 233 268 9,900 -540 Descending FlightAware
10:36PM -27.3540 152.5160 117° Southeast 233 268 9,600 -780 Descending FlightAware
10:36PM -27.3600 152.5300 116° Southeast 235 270 9,400 -960 Descending FlightAware
10:37PM -27.3724 152.5580 116° Southeast 234 269 9,100 -600 Descending Aus ATC (RADAR)
10:37PM -27.3760 152.5660 116° Southeast 231 266 9,100 -540 Level FlightAware
10:37PM -27.3860 152.5930 113° Southeast 227 261 8,800 -1,020 Descending FlightAware
10:38PM -27.3979 152.6248 113° Southeast 225 259 8,300 -840 Descending Aus ATC (RADAR)
10:38PM -27.3990 152.6270 113° Southeast 226 260 8,400 -540 Climbing FlightAware
10:38PM -27.4130 152.6600 116° Southeast 224 258 8,000 -780 Descending FlightAware
10:39PM -27.4250 152.6860 117° Southeast 227 261 7,700 -900 Descending FlightAware
10:39PM -27.4390 152.7180 116° Southeast 227 261 7,200 -1,140 Descending FlightAware
10:39PM -27.4510 152.7440 117° Southeast 225 259 6,700 -1,200 Descending FlightAware
10:40PM -27.4580 152.7600 116° Southeast 222 255 6,400 -1,320 Descending FlightAware
10:40PM -27.4680 152.7831 116° Southeast 215 247 6,000 -960 Descending Aus ATC (RADAR)
10:40PM -27.4690 152.7850 116° Southeast 217 250 6,000 -840 Level FlightAware
10:41PM -27.4820 152.8140 117° Southeast 214 246 5,500 -1,020 Descending FlightAware
10:41PM -27.4950 152.8450 115° Southeast 214 246 5,000 -1,020 Descending FlightAware
10:42PM -27.5080 152.8740 117° Southeast 215 247 4,500 -1,020 Descending FlightAware
10:42PM -27.5190 152.8990 116° Southeast 210 242 4,100 -1,140 Descending FlightAware
10:43PM -27.5320 152.9280 117° Southeast 202 232 3,500 -1,140 Descending FlightAware
10:43PM -27.5420 152.9520 115° Southeast 202 232 3,100 -1,080 Descending FlightAware
10:43PM -27.5470 152.9650 113° Southeast 202 232 2,800 -1,080 Descending FlightAware
10:44PM -27.5610 152.9920 120° Southeast 192 221 2,300 -420 Descending FlightAware
10:44PM -27.5695 153.0115 120° Southeast 181 208 2,500 720 Climbing Aus ATC (RADAR)
10:44PM -27.5700 153.0140 120° Southeast 177 204 2,600 420 Climbing FlightAware
10:44PM -27.5710 153.0180 106° East 181 208 2,600 -420 Level FlightAware
10:45PM -27.5590 153.0350 51° Northeast 198 228 2,400 -180 Descending FlightAware
10:45PM -27.5366 153.0443 51° Northeast 188 216 2,500 360 Climbing Aus ATC (RADAR)
10:45PM -27.5340 153.0460 51° Northeast 195 224 2,600 180 Climbing FlightAware
10:46PM -27.5170 153.0540 23° Northeast 190 219 2,600 -480 Level FlightAware
10:46PM -27.4920 153.0670 25° Northeast 174 200 2,200 -1,200 Descending FlightAware
10:46PM -27.4774 153.0752 25° Northeast 162 186 1,700 -960 Descending Aus ATC (RADAR)
10:46PM -27.4760 153.0760 25° Northeast 150 173 1,800 -480 Climbing FlightAware
10:47PM -27.4580 153.0860 26° Northeast 143 165 1,400 -840 Descending FlightAware
10:47PM -27.4420 153.0960 29° Northeast 138 159 1,000 -780 Descending FlightAware
10:48PM -27.4280 153.1040 27° Northeast 137 158 700 -660 Descending FlightAware
10:48PM -27.4130 153.1120 25° Northeast 131 151 400 -780 Descending FlightAware
10:49PM -27.4023 153.1185 25° Northeast 117 135 100 -480 Descending Aus ATC (RADAR)
10:49PM -27.4010 153.1190 25° Northeast 118 136 200 720 Climbing FlightAware
10:49PM -27.3910 153.1240 24° Northeast 41 47 -420 Descending FlightAware
10:50PM -27.3880 153.1250 16° North 24 28  Level FlightAware
10:50PM -27.3860 153.1260 24° Northeast 20 23  Level FlightAware
10:51PM -27.3840 153.1270 24° Northeast 11 13  Level FlightAware
10:51PM -27.3850 153.1290 119° Southeast 21 24  Level FlightAware
10:52PM -27.3850 153.1310 90° East 15 17  Level FlightAware
10:52PM -27.3840 153.1320 42° Northeast 17 20  Level FlightAware
10:52PM -27.3850 153.1330 138° Southeast 20 23  Level FlightAware
10:53PM -27.3850 153.1350 90° East 9 10  Level FlightAware
10:53PM -27.3870 153.1340 204° Southwest 18 21  Level FlightAware
10:54PM -27.3890 153.1330 204° Southwest 10 12  Level FlightAware
10:54PM -27.3900 153.1330 180° South 4 5  Level FlightAware
10:57PM -27.3842 153.1175 293° West  Level Estimated
10:58PM -27.3842 153.1175 North  Level Estimated
10:59PM -27.3842 153.1175 North  Level Estimated
11:00PM -27.3842 153.1175 North  Level Estimated
11:01PM -27.3842 153.1175 North  Level Estimated
11:02PM -27.3842 153.1175 North  Level Estimated
11:03PM -27.3842 153.1175 North  Level Estimated
11:04PM -27.3842 153.1175 North  Level Estimated
11:05PM -27.3842 153.1175 North  Level Estimated
11:06PM -27.3842 153.1175 North  Level Estimated
11:07PM -27.3842 153.1175 North  Level Estimated
11:08PM -27.3842 153.1175 North  Level Estimated
11:09PM -27.3842 153.1175 North  Level Estimated
11:10PM -27.3842 153.1175 North  Level Estimated
11:11PM -27.3842 153.1175 North  Level Estimated
11:12PM -27.3842 153.1175 North  Level Estimated
11:13PM -27.3842 153.1175 North  Level Estimated
11:14PM -27.3842 153.1175 North  Level Estimated
11:15PM -27.3842 153.1175 North  Level Estimated